< < Back
Terminal Aerodrome Forecast


Current Version              Previous Versions:   1  2  3  4  5  6  7  8  9  

Terminal Aerodrome Forecast

807
FTUS42 KFFC 311700 RRA
TAFPDK
TAF
KPDK 311742Z 3118/0118 VRB04KT P6SM BKN030
     FM312200 07006KT P6SM BKN050
     FM010500 06005KT P6SM BKN018
     FM010800 06003KT P6SM BKN007 PROB30 0109/0115 4SM -RA BR
     FM011500 07005KT 5SM -SHRA BKN015 BKN025=

Latest METAR

366
SAUS70 KWBC 311700 RRS
MTRPDK
METAR KPDK 311653Z 09004KT 8SM OVC013 26/19 A3009 RMK AO2 SLP174
T02560194


USA.gov is the U.S. government's official web portal to all federal, state and local government web resources and services.